Airport ID:KO69
Update Time (UTC):22/07/2019 10:32
Wind Speed (Knots):5
Wind Direction (Magnetic):270
Temperature (°C):12
Dew Point (°C):12
Humidity (%):100
Altimeter (inHg):29.94
Density Altitude (Feet):
Visibility (Miles):6
Clouds (Hundreds of feet):BKN004
Present Weather:BR
METAR:METAR KO69 221030Z AUTO 27005KT 7SM BKN004 12/12 A2994 RMK A01

The data displayed is for advisory purposes only and is not to be used for flight planning or operations.

This page is not automatically refreshed. Reload the page to see current data.